Time;durP1;ratioP1;P1;durP2;ratioP2;P2;SDS_P1;SDS_P2;PMS_P1;PMS_P2;Temp;Humidity;BMP_temperature;BMP_pressure;BME280_temperature;BME280_humidity;BME280_pressure;Samples;Min_cycle;Max_cycle;Signal;HPM_P1;HPM_P2
2022/07/09 00:00:20;;;;;;;6.93;2.53;;;12.70;99.90;;;;;;5030387;28;20090;-79
2022/07/09 00:02:46;;;;;;;12.70;2.67;;;12.70;99.90;;;;;;5038806;28;20024;-79
2022/07/09 00:05:13;;;;;;;7.85;2.88;;;12.80;99.90;;;;;;5050436;28;20472;-79
2022/07/09 00:07:39;;;;;;;8.98;3.13;;;12.80;99.90;;;;;;5042790;28;20075;-79
2022/07/09 00:10:05;;;;;;;9.90;3.10;;;12.80;99.90;;;;;;5042964;28;20029;-78
2022/07/09 00:12:30;;;;;;;6.53;2.60;;;12.80;99.90;;;;;;5050302;28;20086;-78
2022/07/09 00:14:56;;;;;;;6.25;2.70;;;12.80;99.90;;;;;;5031463;28;20558;-79
2022/07/09 00:17:21;;;;;;;6.78;3.15;;;12.80;99.90;;;;;;5028281;28;20061;-79
2022/07/09 00:19:47;;;;;;;6.45;2.83;;;12.80;99.90;;;;;;5040108;28;20474;-79
2022/07/09 00:22:12;;;;;;;9.13;2.63;;;12.80;99.90;;;;;;5037679;28;20101;-78
2022/07/09 00:24:38;;;;;;;4.47;2.55;;;12.90;99.90;;;;;;5052969;28;20078;-79
2022/07/09 00:27:04;;;;;;;7.22;2.42;;;12.80;99.90;;;;;;5052412;28;20013;-79
2022/07/09 00:29:29;;;;;;;6.22;2.22;;;12.80;99.90;;;;;;5048986;28;20351;-79
2022/07/09 00:31:55;;;;;;;5.70;2.10;;;12.80;99.90;;;;;;5032054;28;20076;-78
2022/07/09 00:34:20;;;;;;;9.25;2.40;;;12.80;99.90;;;;;;5033531;28;20060;-79
2022/07/09 00:36:46;;;;;;;5.05;2.30;;;12.80;99.90;;;;;;5043590;28;20475;-79
2022/07/09 00:39:11;;;;;;;4.90;2.05;;;12.80;99.90;;;;;;5043423;28;20411;-79
2022/07/09 00:41:37;;;;;;;4.60;2.38;;;12.80;99.90;;;;;;5050938;28;20037;-79
2022/07/09 00:44:02;;;;;;;3.72;1.98;;;12.70;99.90;;;;;;5050596;28;20029;-79
2022/07/09 00:46:28;;;;;;;7.90;2.40;;;12.70;99.90;;;;;;5050332;28;20359;-79
2022/07/09 00:48:54;;;;;;;5.43;2.05;;;12.70;99.90;;;;;;5039086;28;20040;-79
2022/07/09 00:51:20;;;;;;;5.38;2.10;;;12.70;99.90;;;;;;5054325;28;20112;-79
2022/07/09 00:53:48;;;;;;;7.32;2.67;;;12.60;99.90;;;;;;5047991;28;20025;-79
2022/07/09 00:56:14;;;;;;;5.07;2.10;;;12.60;99.90;;;;;;5043824;28;20117;-79
2022/07/09 00:58:43;;;;;;;6.22;2.10;;;12.60;99.90;;;;;;5047984;28;20017;-79
2022/07/09 01:01:09;;;;;;;7.15;2.38;;;12.60;99.90;;;;;;5042711;28;20044;-79
2022/07/09 01:03:34;;;;;;;5.28;2.55;;;12.60;99.90;;;;;;5043238;28;20096;-79
2022/07/09 01:06:00;;;;;;;3.88;1.90;;;12.60;99.90;;;;;;5040509;28;20032;-79
2022/07/09 01:08:26;;;;;;;4.38;2.00;;;12.60;99.90;;;;;;5053693;28;20075;-79
2022/07/09 01:10:52;;;;;;;7.03;2.15;;;12.60;99.90;;;;;;5053574;28;20055;-79
2022/07/09 01:13:18;;;;;;;4.38;2.03;;;12.60;99.90;;;;;;5040352;28;20064;-79
2022/07/09 01:15:43;;;;;;;5.38;2.00;;;12.60;99.90;;;;;;5034922;28;20421;-79
2022/07/09 01:18:13;;;;;;;4.72;2.00;;;12.60;99.90;;;;;;5037260;28;20033;-79
2022/07/09 01:20:38;;;;;;;8.68;2.33;;;12.60;99.90;;;;;;5048713;28;20112;-79
2022/07/09 01:23:04;;;;;;;4.18;2.00;;;12.60;99.90;;;;;;5053425;28;20060;-79
2022/07/09 01:25:41;;;;;;;5.68;2.30;;;12.50;99.90;;;;;;5053705;28;20389;-78
2022/07/09 01:28:09;;;;;;;4.85;2.50;;;12.50;99.90;;;;;;5056470;28;20024;-78
2022/07/09 01:30:37;;;;;;;5.93;2.28;;;12.50;99.90;;;;;;5043291;28;20029;-78
2022/07/09 01:33:03;;;;;;;3.42;2.00;;;12.50;99.90;;;;;;5033369;28;20026;-78
2022/07/09 01:35:28;;;;;;;7.35;2.13;;;12.50;99.90;;;;;;5036010;28;20030;-78
2022/07/09 01:37:54;;;;;;;5.40;2.50;;;12.50;99.90;;;;;;5035743;28;20382;-78
2022/07/09 01:40:21;;;;;;;7.78;2.30;;;12.50;99.90;;;;;;5035805;28;20041;-78
2022/07/09 01:42:47;;;;;;;4.40;2.10;;;12.40;99.90;;;;;;5036496;28;20025;-78
2022/07/09 01:45:14;;;;;;;4.63;2.40;;;12.40;99.90;;;;;;5035448;28;20025;-79
2022/07/09 01:47:39;;;;;;;7.25;2.40;;;12.30;99.90;;;;;;5035601;28;20025;-79
2022/07/09 01:50:06;;;;;;;9.43;2.83;;;12.30;99.90;;;;;;5035937;28;20041;-78
2022/07/09 01:52:31;;;;;;;4.15;2.05;;;12.30;99.90;;;;;;5035648;28;20413;-78
2022/07/09 01:54:57;;;;;;;4.60;2.00;;;12.30;99.90;;;;;;5035446;28;20080;-78
2022/07/09 01:57:23;;;;;;;6.53;2.25;;;12.20;99.90;;;;;;5035461;28;20566;-79
2022/07/09 01:59:48;;;;;;;5.47;1.90;;;12.30;99.90;;;;;;5035199;28;20098;-79
2022/07/09 02:02:14;;;;;;;4.45;2.15;;;12.30;99.90;;;;;;5035438;28;20109;-78
2022/07/09 02:04:39;;;;;;;5.35;1.90;;;12.20;99.90;;;;;;5035813;28;20040;-79
2022/07/09 02:07:05;;;;;;;8.57;2.40;;;12.20;99.90;;;;;;5035301;28;20025;-79
2022/07/09 02:09:31;;;;;;;5.03;2.05;;;12.30;99.90;;;;;;5035377;28;20021;-79
2022/07/09 02:11:56;;;;;;;4.25;2.00;;;12.30;99.90;;;;;;5017322;28;20360;-79
2022/07/09 02:14:22;;;;;;;8.80;2.17;;;12.30;99.90;;;;;;5035413;28;20048;-79
2022/07/09 02:16:48;;;;;;;5.20;2.20;;;12.30;99.90;;;;;;5035305;28;20044;-79
2022/07/09 02:19:14;;;;;;;6.75;2.17;;;12.30;99.90;;;;;;5035496;28;20041;-79
2022/07/09 02:21:39;;;;;;;6.78;2.25;;;12.30;99.90;;;;;;5035229;28;20028;-79
2022/07/09 02:24:06;;;;;;;4.03;2.08;;;12.30;99.90;;;;;;5035275;28;20104;-79
2022/07/09 02:26:31;;;;;;;8.77;2.83;;;12.30;99.90;;;;;;5017145;28;20022;-78
2022/07/09 02:28:57;;;;;;;4.18;2.20;;;12.30;99.90;;;;;;5034984;28;20032;-79
2022/07/09 02:31:23;;;;;;;4.63;2.15;;;12.30;99.90;;;;;;5017289;28;20032;-79
2022/07/09 02:33:48;;;;;;;5.43;2.22;;;12.30;99.90;;;;;;5034681;28;20185;-79
2022/07/09 02:36:14;;;;;;;6.63;2.63;;;12.30;99.90;;;;;;5034611;28;20026;-79
2022/07/09 02:38:39;;;;;;;4.85;2.30;;;12.20;99.90;;;;;;5017291;28;20052;-77
2022/07/09 02:41:05;;;;;;;6.75;2.50;;;12.30;99.90;;;;;;5034318;28;20088;-77
2022/07/09 02:43:31;;;;;;;5.82;2.15;;;12.30;99.90;;;;;;5034513;28;20394;-77
2022/07/09 02:45:56;;;;;;;4.28;2.10;;;12.40;99.90;;;;;;5034461;28;20352;-77
2022/07/09 02:48:23;;;;;;;4.35;1.98;;;12.30;99.90;;;;;;5034853;28;20382;-78
2022/07/09 02:50:52;;;;;;;4.93;2.28;;;12.40;99.90;;;;;;5034331;28;20113;-78
2022/07/09 02:53:19;;;;;;;3.95;1.90;;;12.40;99.90;;;;;;5016582;28;20033;-78
2022/07/09 02:55:45;;;;;;;8.68;1.88;;;12.50;99.90;;;;;;5034433;28;20114;-78
2022/07/09 02:58:11;;;;;;;7.97;2.00;;;12.50;99.90;;;;;;5034302;28;20493;-78
2022/07/09 03:00:39;;;;;;;5.90;1.90;;;12.50;99.90;;;;;;5034105;28;20085;-78
2022/07/09 03:03:05;;;;;;;4.57;2.45;;;12.60;99.90;;;;;;5034860;28;20071;-78
2022/07/09 03:05:31;;;;;;;7.88;2.10;;;12.60;99.90;;;;;;5034395;28;20107;-77
2022/07/09 03:07:57;;;;;;;6.10;1.95;;;12.70;99.90;;;;;;5034203;28;20371;-77
2022/07/09 03:10:22;;;;;;;6.28;2.10;;;12.70;99.90;;;;;;5033436;28;20488;-78
2022/07/09 03:12:48;;;;;;;3.45;1.88;;;12.70;99.90;;;;;;5033917;28;20079;-78
2022/07/09 03:15:16;;;;;;;6.88;2.00;;;12.70;99.90;;;;;;5033998;28;20036;-77
2022/07/09 03:17:42;;;;;;;5.20;2.10;;;12.70;99.90;;;;;;5033948;28;20472;-78
2022/07/09 03:20:09;;;;;;;4.60;2.08;;;12.70;99.90;;;;;;5033930;28;20040;-78
2022/07/09 03:22:35;;;;;;;6.03;2.00;;;12.70;99.90;;;;;;5034028;28;20029;-78
2022/07/09 03:25:00;;;;;;;6.50;1.90;;;12.70;99.90;;;;;;5016237;28;20109;-77
2022/07/09 03:27:26;;;;;;;5.00;2.13;;;12.60;99.90;;;;;;5033991;28;20109;-77
2022/07/09 03:29:52;;;;;;;6.80;2.30;;;12.60;99.90;;;;;;5016227;28;20029;-78
2022/07/09 03:32:17;;;;;;;4.35;2.20;;;12.60;99.90;;;;;;5033803;28;20029;-78
2022/07/09 03:34:43;;;;;;;8.45;2.20;;;12.60;99.90;;;;;;5033939;28;20374;-78
2022/07/09 03:37:08;;;;;;;4.88;2.40;;;12.60;99.90;;;;;;5016069;28;20386;-77
2022/07/09 03:39:34;;;;;;;5.05;2.20;;;12.60;99.90;;;;;;5033623;28;20030;-77
2022/07/09 03:42:00;;;;;;;5.63;2.22;;;12.60;99.90;;;;;;5033716;28;20030;-77
2022/07/09 03:44:25;;;;;;;5.68;2.28;;;12.60;99.90;;;;;;5033544;28;20033;-77
2022/07/09 03:46:51;;;;;;;8.35;2.05;;;12.60;99.90;;;;;;5033544;28;20033;-78
2022/07/09 03:49:16;;;;;;;5.80;2.33;;;12.60;99.90;;;;;;5033785;28;20029;-78
2022/07/09 03:51:43;;;;;;;5.53;2.30;;;12.60;99.90;;;;;;5033379;28;20030;-78
2022/07/09 03:54:09;;;;;;;5.55;2.40;;;12.60;99.90;;;;;;5033727;28;20063;-78
2022/07/09 03:56:35;;;;;;;4.75;2.50;;;12.70;99.90;;;;;;5015641;28;20112;-78
2022/07/09 03:59:01;;;;;;;8.95;2.58;;;12.70;99.90;;;;;;5033191;28;20029;-77
2022/07/09 04:01:26;;;;;;;6.35;2.10;;;12.70;99.90;;;;;;5033695;28;20026;-78
2022/07/09 04:03:52;;;;;;;5.32;2.38;;;12.70;99.90;;;;;;5033341;28;20025;-77
2022/07/09 04:06:17;;;;;;;6.97;2.50;;;12.70;99.90;;;;;;5050484;28;20033;-78
2022/07/09 04:08:43;;;;;;;5.78;2.35;;;12.80;99.90;;;;;;5036532;28;20032;-78
2022/07/09 04:11:09;;;;;;;7.07;2.50;;;12.80;99.90;;;;;;5033390;28;20117;-78
2022/07/09 04:13:35;;;;;;;5.30;2.45;;;12.80;99.90;;;;;;5033590;28;20506;-78
2022/07/09 04:16:00;;;;;;;5.65;2.30;;;12.90;99.90;;;;;;5033484;28;20034;-78
2022/07/09 04:18:26;;;;;;;4.47;2.20;;;12.90;99.90;;;;;;5033040;28;20108;-77
2022/07/09 04:20:52;;;;;;;4.70;2.17;;;12.90;99.90;;;;;;5031147;28;20120;-77
2022/07/09 04:23:18;;;;;;;8.80;2.38;;;13.00;99.90;;;;;;5015364;28;20063;-76
2022/07/09 04:25:45;;;;;;;6.63;2.40;;;13.00;99.90;;;;;;5037391;28;20025;-76
2022/07/09 04:28:10;;;;;;;4.10;2.50;;;13.10;99.90;;;;;;5037090;28;20401;-74
2022/07/09 04:30:36;;;;;;;5.75;2.60;;;13.10;99.90;;;;;;5036492;28;20034;-74
2022/07/09 04:33:01;;;;;;;7.10;2.83;;;13.10;99.90;;;;;;5036343;28;20086;-72
2022/07/09 04:35:27;;;;;;;8.48;2.47;;;13.10;99.90;;;;;;5048972;28;20098;-71
2022/07/09 04:37:52;;;;;;;7.90;2.55;;;13.10;99.90;;;;;;5053760;28;20028;-71
2022/07/09 04:40:18;;;;;;;7.72;2.22;;;13.20;99.90;;;;;;5041861;28;20044;-79
2022/07/09 04:42:44;;;;;;;6.25;2.42;;;13.20;99.90;;;;;;5034433;28;20030;-72
2022/07/09 04:45:10;;;;;;;4.15;2.35;;;13.20;99.90;;;;;;5034348;28;20034;-78
2022/07/09 04:47:36;;;;;;;5.85;2.42;;;13.30;99.90;;;;;;5035930;28;20370;-71
2022/07/09 04:50:02;;;;;;;6.30;2.70;;;13.30;99.90;;;;;;5035514;28;20033;-81
2022/07/09 04:52:28;;;;;;;7.47;2.55;;;13.30;99.90;;;;;;5034261;28;20036;-74
2022/07/09 04:54:54;;;;;;;5.55;2.25;;;13.40;99.90;;;;;;5036040;28;20029;-74
2022/07/09 04:57:19;;;;;;;7.85;2.30;;;13.40;99.90;;;;;;5035861;28;20041;-74
2022/07/09 04:59:45;;;;;;;6.43;2.80;;;13.50;99.90;;;;;;5035805;28;20057;-74
2022/07/09 05:02:10;;;;;;;5.97;2.13;;;13.50;99.90;;;;;;5036149;28;20025;-74
2022/07/09 05:04:36;;;;;;;5.60;2.45;;;13.50;99.90;;;;;;5036041;28;20055;-73
2022/07/09 05:07:01;;;;;;;5.63;2.20;;;13.60;99.90;;;;;;5036110;28;20033;-74
2022/07/09 05:09:27;;;;;;;5.60;2.13;;;13.60;99.90;;;;;;5038234;28;20025;-74
2022/07/09 05:11:54;;;;;;;5.40;2.20;;;13.70;99.90;;;;;;5027862;28;20095;-74
2022/07/09 05:14:19;;;;;;;5.82;2.35;;;13.80;99.90;;;;;;5035852;28;20025;-74
2022/07/09 05:16:45;;;;;;;7.43;1.90;;;13.80;99.90;;;;;;5035656;28;20033;-74
2022/07/09 05:19:11;;;;;;;6.55;2.53;;;13.90;99.90;;;;;;5035591;28;20535;-74
2022/07/09 05:21:39;;;;;;;5.20;2.05;;;14.00;99.90;;;;;;5035510;28;20017;-74
2022/07/09 05:24:05;;;;;;;6.32;2.63;;;14.00;99.90;;;;;;5035460;28;20127;-74
2022/07/09 05:26:31;;;;;;;7.22;2.20;;;14.10;99.90;;;;;;5017724;28;20100;-74
2022/07/09 05:28:57;;;;;;;5.93;2.13;;;14.20;99.90;;;;;;5035418;28;20152;-74
2022/07/09 05:31:22;;;;;;;5.35;2.15;;;14.20;99.90;;;;;;5031718;28;20100;-74
2022/07/09 05:33:48;;;;;;;5.85;2.25;;;14.20;99.90;;;;;;5030633;28;20054;-74
2022/07/09 05:36:13;;;;;;;6.13;2.20;;;14.30;99.90;;;;;;5035011;28;20437;-74
2022/07/09 05:38:39;;;;;;;6.60;2.40;;;14.40;99.90;;;;;;5035210;28;20371;-74
2022/07/09 05:41:07;;;;;;;6.53;2.10;;;14.40;99.90;;;;;;5040850;28;20025;-74
2022/07/09 05:43:32;;;;;;;5.78;2.17;;;14.50;99.90;;;;;;5037613;28;20386;-74
2022/07/09 05:45:59;;;;;;;4.13;2.10;;;14.50;99.90;;;;;;5043811;28;20022;-74
2022/07/09 05:48:24;;;;;;;6.90;2.53;;;14.60;99.90;;;;;;5035158;28;20021;-74
2022/07/09 05:50:50;;;;;;;5.03;2.65;;;14.70;99.90;;;;;;5035280;28;20033;-74
2022/07/09 05:53:15;;;;;;;10.32;2.53;;;14.70;99.90;;;;;;5035249;28;20177;-74
2022/07/09 05:55:41;;;;;;;9.73;2.63;;;14.80;99.90;;;;;;5032193;28;20458;-74
2022/07/09 05:58:06;;;;;;;6.68;2.70;;;14.90;99.90;;;;;;5035073;28;20025;-74
2022/07/09 06:00:32;;;;;;;6.88;2.67;;;15.00;99.90;;;;;;5035641;28;20045;-75
2022/07/09 06:02:58;;;;;;;9.30;2.97;;;15.00;99.90;;;;;;5034406;28;20462;-74
2022/07/09 06:05:23;;;;;;;7.97;2.95;;;15.00;99.90;;;;;;5034432;28;20355;-74
2022/07/09 06:07:49;;;;;;;7.45;2.30;;;15.20;99.90;;;;;;5022913;28;20030;-74
2022/07/09 06:10:16;;;;;;;5.07;2.25;;;15.30;99.90;;;;;;5033956;28;20032;-74
2022/07/09 06:12:42;;;;;;;11.73;2.25;;;15.40;99.90;;;;;;5034214;28;20113;-74
2022/07/09 06:15:10;;;;;;;8.05;2.50;;;15.50;99.90;;;;;;5018736;28;20740;-76
2022/07/09 06:17:35;;;;;;;7.30;2.33;;;15.60;99.90;;;;;;5011461;28;20033;-76
2022/07/09 06:20:01;;;;;;;6.78;2.40;;;15.70;99.90;;;;;;5029116;28;20029;-76
2022/07/09 06:22:27;;;;;;;5.55;2.30;;;15.70;99.90;;;;;;5029306;28;20025;-76
2022/07/09 06:24:52;;;;;;;4.63;2.10;;;15.80;99.90;;;;;;5013207;28;20040;-76
2022/07/09 06:27:18;;;;;;;7.05;1.90;;;15.90;99.90;;;;;;5029082;28;20029;-76
2022/07/09 06:29:43;;;;;;;5.82;2.15;;;15.90;99.90;;;;;;5010977;28;20124;-76
2022/07/09 06:32:09;;;;;;;7.63;2.22;;;16.00;99.90;;;;;;5024264;28;20470;-76
2022/07/09 06:34:34;;;;;;;4.53;2.40;;;16.10;99.90;;;;;;5028278;28;20458;-77
2022/07/09 06:37:00;;;;;;;9.05;2.65;;;16.10;99.90;;;;;;5026749;28;20033;-77
2022/07/09 06:39:44;;;;;;;7.38;2.03;;;16.30;99.90;;;;;;5028705;28;20029;-76
2022/07/09 06:42:10;;;;;;;5.53;2.10;;;16.40;99.90;;;;;;5029076;28;20622;-77
2022/07/09 06:44:36;;;;;;;5.10;1.95;;;16.40;99.90;;;;;;5029007;28;20025;-77
2022/07/09 06:47:03;;;;;;;5.95;2.22;;;16.40;99.90;;;;;;5027941;28;20029;-77
2022/07/09 06:49:29;;;;;;;9.10;2.13;;;16.40;99.90;;;;;;5028459;28;20038;-76
2022/07/09 06:51:55;;;;;;;7.10;2.30;;;16.50;99.90;;;;;;5010891;28;20029;-77
2022/07/09 06:54:21;;;;;;;6.18;2.05;;;16.60;99.90;;;;;;5024683;28;20025;-77
2022/07/09 06:56:47;;;;;;;5.43;2.17;;;16.60;99.90;;;;;;5028749;28;20100;-77
2022/07/09 06:59:13;;;;;;;3.75;1.73;;;16.60;99.90;;;;;;5029803;28;20046;-77
2022/07/09 07:01:39;;;;;;;7.10;1.85;;;16.60;99.90;;;;;;5030497;28;20025;-77
2022/07/09 07:04:05;;;;;;;4.53;1.75;;;16.70;99.90;;;;;;5030020;28;20059;-77
2022/07/09 07:06:30;;;;;;;7.10;2.33;;;16.70;99.90;;;;;;5030417;28;20091;-76
2022/07/09 07:08:56;;;;;;;8.13;2.20;;;16.80;99.90;;;;;;5011987;28;20119;-77
2022/07/09 07:11:22;;;;;;;5.68;2.05;;;16.90;99.90;;;;;;5029376;28;20066;-77
2022/07/09 07:14:08;;;;;;;5.95;1.88;;;17.00;99.90;;;;;;5025499;28;20157;-77
2022/07/09 07:16:36;;;;;;;5.43;1.85;;;17.10;99.90;;;;;;5027440;28;20071;-77
2022/07/09 07:19:01;;;;;;;6.22;1.83;;;17.10;99.90;;;;;;5029522;28;20037;-77
2022/07/09 07:21:29;;;;;;;5.85;2.08;;;17.20;99.90;;;;;;5028756;28;20025;-77
2022/07/09 07:23:57;;;;;;;6.10;1.95;;;17.20;99.90;;;;;;5028046;28;20037;-76
2022/07/09 07:26:27;;;;;;;6.63;1.70;;;17.30;99.90;;;;;;5028347;28;20095;-77
2022/07/09 07:28:54;;;;;;;7.97;2.10;;;17.40;99.90;;;;;;5010842;28;20379;-77
2022/07/09 07:31:19;;;;;;;5.90;1.98;;;17.50;99.90;;;;;;5017032;28;20087;-77
2022/07/09 07:33:45;;;;;;;7.10;2.30;;;17.50;99.90;;;;;;5027847;28;20021;-77
2022/07/09 07:36:11;;;;;;;9.10;2.13;;;17.60;99.90;;;;;;5027110;28;20401;-77
2022/07/09 07:38:36;;;;;;;6.82;1.98;;;17.70;99.90;;;;;;5027834;28;20090;-77
2022/07/09 07:41:04;;;;;;;5.85;1.67;;;17.80;99.90;;;;;;5014061;28;20041;-76
2022/07/09 07:43:30;;;;;;;7.53;1.80;;;17.90;99.90;;;;;;5027711;28;20021;-77
2022/07/09 07:45:55;;;;;;;7.47;1.83;;;18.00;99.90;;;;;;5011914;28;20433;-76
2022/07/09 07:48:21;;;;;;;8.73;1.90;;;18.10;99.90;;;;;;5027574;28;20018;-77
2022/07/09 07:50:46;;;;;;;6.45;1.77;;;18.20;99.90;;;;;;5026117;28;20033;-77
2022/07/09 07:53:12;;;;;;;4.35;1.80;;;18.30;99.90;;;;;;5027716;28;20029;-77
2022/07/09 07:55:39;;;;;;;5.38;1.90;;;18.50;99.90;;;;;;5010256;28;20037;-77
2022/07/09 07:58:05;;;;;;;4.85;1.48;;;18.60;99.90;;;;;;5009717;28;20053;-77
2022/07/09 08:00:31;;;;;;;7.28;1.83;;;18.80;99.90;;;;;;5017967;28;20053;-77
2022/07/09 08:02:57;;;;;;;7.35;1.90;;;19.00;99.90;;;;;;5027092;28;20032;-77
2022/07/09 08:05:30;;;;;;;4.07;1.58;;;19.10;99.90;;;;;;5027837;28;20465;-77
2022/07/09 08:07:58;;;;;;;6.00;1.90;;;19.20;99.90;;;;;;5009507;28;20033;-77
2022/07/09 08:10:25;;;;;;;6.82;1.95;;;19.30;99.90;;;;;;5027602;28;20113;-77
2022/07/09 08:12:51;;;;;;;4.90;1.77;;;19.40;99.90;;;;;;5008636;28;20026;-76
2022/07/09 08:15:17;;;;;;;8.88;1.88;;;19.60;99.90;;;;;;5020440;28;20025;-77
2022/07/09 08:17:42;;;;;;;5.70;1.90;;;19.70;99.90;;;;;;5009998;28;20079;-76
2022/07/09 08:20:09;;;;;;;3.65;1.48;;;19.80;99.90;;;;;;5027311;28;20030;-77
2022/07/09 08:22:37;;;;;;;5.20;1.48;;;19.70;99.90;;;;;;5025981;28;20087;-77
2022/07/09 08:25:04;;;;;;;5.57;1.58;;;19.60;99.90;;;;;;5026900;28;20117;-77
2022/07/09 08:27:32;;;;;;;7.20;1.70;;;19.70;99.90;;;;;;5027210;28;20112;-76
2022/07/09 08:29:57;;;;;;;7.60;1.58;;;19.80;99.90;;;;;;5027576;28;20034;-77
2022/07/09 08:32:23;;;;;;;8.98;1.65;;;19.80;99.90;;;;;;5027328;28;20085;-77
2022/07/09 08:34:48;;;;;;;7.07;1.75;;;19.70;99.90;;;;;;5027832;28;20025;-76
2022/07/09 08:37:14;;;;;;;5.18;1.58;;;19.80;99.90;;;;;;5028013;28;20866;-77
2022/07/09 08:39:40;;;;;;;5.70;1.58;;;19.80;99.90;;;;;;5027260;28;20037;-77
2022/07/09 08:42:12;;;;;;;5.47;1.63;;;19.90;99.90;;;;;;5027463;28;20030;-76
2022/07/09 08:44:42;;;;;;;5.07;1.80;;;19.90;99.90;;;;;;5014563;28;20387;-77
2022/07/09 08:47:13;;;;;;;10.80;2.03;;;19.90;99.90;;;;;;5027642;28;20026;-76
2022/07/09 08:49:40;;;;;;;4.00;1.60;;;20.10;99.90;;;;;;5025941;28;20108;-76
2022/07/09 08:52:09;;;;;;;6.32;1.75;;;20.20;99.90;;;;;;5027867;28;20033;-77
2022/07/09 08:54:39;;;;;;;6.05;1.60;;;20.30;99.90;;;;;;5012635;28;20032;-77
2022/07/09 08:57:12;;;;;;;5.30;2.22;;;20.30;99.90;;;;;;5028744;28;20025;-76
2022/07/09 08:59:38;;;;;;;3.65;1.35;;;20.40;99.90;;;;;;5030071;28;20048;-76
2022/07/09 09:02:09;;;;;;;7.18;1.45;;;20.40;99.90;;;;;;5030294;28;20018;-76
2022/07/09 09:04:42;;;;;;;4.70;1.67;;;20.50;99.90;;;;;;5030162;28;20024;-77
2022/07/09 09:07:18;;;;;;;3.80;1.63;;;20.70;99.90;;;;;;5030502;28;20030;-77
2022/07/09 09:09:44;;;;;;;6.22;2.05;;;20.70;99.90;;;;;;5031869;28;20079;-77
2022/07/09 09:12:13;;;;;;;5.78;1.70;;;20.70;99.90;;;;;;5026218;28;20037;-77
2022/07/09 09:14:50;;;;;;;5.47;1.80;;;20.80;99.90;;;;;;5022734;28;20052;-77
2022/07/09 09:17:16;;;;;;;6.00;1.60;;;21.00;99.90;;;;;;5028626;28;20490;-77
2022/07/09 09:19:42;;;;;;;5.70;1.63;;;21.20;99.90;;;;;;5015724;28;20040;-77
2022/07/09 09:22:10;;;;;;;8.05;1.80;;;21.40;99.90;;;;;;5033720;28;20109;-77
2022/07/09 09:24:35;;;;;;;2.92;1.30;;;21.40;99.90;;;;;;5033515;28;20025;-77
2022/07/09 09:27:04;;;;;;;6.18;1.50;;;21.50;99.90;;;;;;5015706;28;20018;-77
2022/07/09 09:29:37;;;;;;;5.22;1.40;;;21.70;99.90;;;;;;5032919;28;20029;-77
2022/07/09 09:32:12;;;;;;;4.53;1.50;;;21.80;99.90;;;;;;5016712;28;20029;-77
2022/07/09 09:34:41;;;;;;;5.93;1.83;;;21.90;99.90;;;;;;5032143;28;20504;-77
2022/07/09 09:37:08;;;;;;;5.82;2.10;;;22.20;99.90;;;;;;5012745;28;20850;-76
2022/07/09 09:39:35;;;;;;;3.35;1.20;;;22.30;99.90;;;;;;5013231;28;20037;-76
2022/07/09 09:42:04;;;;;;;4.57;1.83;;;22.50;99.90;;;;;;5030019;28;20024;-77
2022/07/09 09:44:37;;;;;;;6.85;1.60;;;22.70;99.90;;;;;;5022644;28;20131;-77
2022/07/09 09:47:04;;;;;;;4.53;1.45;;;22.90;99.90;;;;;;5030206;28;20056;-77
2022/07/09 09:49:30;;;;;;;3.92;1.50;;;23.20;99.90;;;;;;5030179;28;20413;-77
2022/07/09 09:52:06;;;;;;;3.13;1.48;;;23.30;99.90;;;;;;5029994;28;20041;-77
2022/07/09 09:54:33;;;;;;;6.47;1.65;;;23.20;99.90;;;;;;5028405;28;20032;-77
2022/07/09 09:57:02;;;;;;;5.45;1.40;;;23.10;99.90;;;;;;5030108;28;20187;-77
2022/07/09 09:59:28;;;;;;;6.55;1.48;;;22.90;99.90;;;;;;5012832;28;20088;-77
2022/07/09 10:01:56;;;;;;;5.25;1.27;;;22.80;99.90;;;;;;5030210;28;20668;-77
2022/07/09 10:04:25;;;;;;;4.78;1.50;;;22.80;99.90;;;;;;5025481;28;20040;-77
2022/07/09 10:06:50;;;;;;;7.38;1.90;;;22.60;99.90;;;;;;5029834;28;20065;-77
2022/07/09 10:09:16;;;;;;;6.10;1.55;;;22.70;99.90;;;;;;5012738;28;20061;-76
2022/07/09 10:11:44;;;;;;;6.88;1.70;;;22.70;99.90;;;;;;5029992;28;20105;-77
2022/07/09 10:14:39;;;;;;;5.85;1.50;;;23.00;99.90;;;;;;5008899;28;20113;-77
2022/07/09 10:17:15;;;;;;;5.18;1.50;;;23.40;99.90;;;;;;4996610;28;20574;-77
2022/07/09 10:20:11;;;;;;;7.63;1.88;;;23.70;99.90;;;;;;5029219;28;20076;-77
2022/07/09 10:22:40;;;;;;;4.82;1.55;;;23.70;99.90;;;;;;5020672;28;20387;-77
2022/07/09 10:25:07;;;;;;;3.97;1.30;;;23.70;99.90;;;;;;5028955;28;20549;-77
2022/07/09 10:27:47;;;;;;;5.07;1.50;;;23.40;99.90;;;;;;5029697;28;20037;-77
2022/07/09 10:30:28;;;;;;;5.22;1.65;;;23.20;99.90;;;;;;5033647;28;20148;-77
2022/07/09 10:33:35;;;;;;;5.10;1.52;;;23.10;99.90;;;;;;5037319;28;20474;-76
2022/07/09 10:36:11;;;;;;;3.05;1.50;;;22.90;99.90;;;;;;5009216;28;20044;-77
2022/07/09 10:38:38;;;;;;;4.70;1.52;;;22.90;99.90;;;;;;5027561;28;20471;-76
2022/07/09 10:41:05;;;;;;;4.47;1.50;;;23.10;99.90;;;;;;5028708;28;20561;-77
2022/07/09 10:43:49;;;;;;;3.83;1.40;;;23.70;99.90;;;;;;5027982;28;20025;-77
2022/07/09 10:46:15;;;;;;;5.47;1.30;;;24.10;99.90;;;;;;5029303;28;20013;-77
2022/07/09 10:48:43;;;;;;;5.65;1.30;;;24.40;99.90;;;;;;5029632;28;20021;-77
2022/07/09 10:51:19;;;;;;;5.00;1.60;;;24.30;99.90;;;;;;5027989;28;20021;-76
2022/07/09 10:53:45;;;;;;;3.47;1.27;;;24.40;99.90;;;;;;5028694;28;20413;-77
2022/07/09 10:56:15;;;;;;;6.47;1.63;;;24.50;99.90;;;;;;5028452;28;20033;-77
2022/07/09 10:58:46;;;;;;;4.78;1.70;;;24.70;99.90;;;;;;5029088;28;20041;-77
2022/07/09 11:01:20;;;;;;;4.80;1.25;;;25.20;99.90;;;;;;5028665;28;20037;-77
2022/07/09 11:03:52;;;;;;;3.20;1.30;;;25.60;99.90;;;;;;5029049;28;20027;-77
2022/07/09 11:06:17;;;;;;;3.45;1.20;;;26.20;98.00;;;;;;5010263;28;20029;-77
2022/07/09 11:08:45;;;;;;;2.83;1.30;;;26.50;99.80;;;;;;5028494;28;20068;-77
2022/07/09 11:11:11;;;;;;;2.70;1.30;;;26.40;98.70;;;;;;5008614;28;20692;-77
2022/07/09 11:13:37;;;;;;;6.20;1.15;;;26.30;99.50;;;;;;5006746;28;20033;-77
2022/07/09 11:16:05;;;;;;;4.88;1.27;;;25.90;98.10;;;;;;5011901;28;20033;-77
2022/07/09 11:18:31;;;;;;;2.33;1.20;;;25.80;97.60;;;;;;5027983;28;20055;-77
2022/07/09 11:20:56;;;;;;;4.47;1.25;;;25.50;99.90;;;;;;5028154;28;20029;-77
2022/07/09 11:23:22;;;;;;;4.95;1.13;;;25.50;98.30;;;;;;5027799;28;20359;-77
2022/07/09 11:25:48;;;;;;;4.45;0.98;;;25.60;99.90;;;;;;5028094;28;20500;-77
2022/07/09 11:28:23;;;;;;;4.15;1.20;;;25.90;99.40;;;;;;5027501;28;20864;-77
2022/07/09 11:31:05;;;;;;;2.95;1.10;;;26.00;98.00;;;;;;5036920;28;20063;-77
2022/07/09 11:36:17;;;;;;;3.72;1.10;;;26.40;96.80;;;;;;5028441;28;20033;-77
2022/07/09 11:38:53;;;;;;;3.25;0.98;;;26.50;95.60;;;;;;5027857;28;20022;-77
2022/07/09 11:41:19;;;;;;;3.13;1.23;;;26.90;93.50;;;;;;5027610;28;20025;-77
2022/07/09 11:43:51;;;;;;;2.90;0.98;;;27.00;93.40;;;;;;5027685;28;20367;-77
2022/07/09 11:46:19;;;;;;;1.27;0.90;;;27.30;92.80;;;;;;5023627;28;20018;-77
2022/07/09 11:48:52;;;;;;;3.70;1.00;;;27.50;92.70;;;;;;5027722;28;20051;-77
2022/07/09 11:51:34;;;;;;;1.35;0.90;;;28.00;91.70;;;;;;5026935;28;20401;-77
2022/07/09 11:54:05;;;;;;;2.60;0.75;;;28.20;87.50;;;;;;5015733;28;20091;-77
2022/07/09 11:56:47;;;;;;;2.78;1.00;;;28.20;87.20;;;;;;5027153;28;20083;-77
2022/07/09 11:59:24;;;;;;;4.57;1.67;;;28.40;85.70;;;;;;5027242;28;20049;-77
2022/07/09 12:01:55;;;;;;;2.10;1.25;;;28.30;86.20;;;;;;5027675;28;20865;-77
2022/07/09 12:04:20;;;;;;;4.30;1.08;;;28.50;83.60;;;;;;5027345;28;20471;-77
2022/07/09 12:06:51;;;;;;;3.60;1.35;;;28.20;86.50;;;;;;5025793;28;20037;-77
2022/07/09 12:09:31;;;;;;;3.20;1.35;;;27.80;90.00;;;;;;5027163;28;20025;-77
2022/07/09 12:11:57;;;;;;;4.40;1.17;;;27.30;90.20;;;;;;5017221;28;20036;-77
2022/07/09 12:14:26;;;;;;;5.82;1.15;;;27.20;89.80;;;;;;5024929;28;20501;-77
2022/07/09 12:16:52;;;;;;;5.93;1.42;;;26.70;90.70;;;;;;5022029;28;20051;-77
2022/07/09 12:19:18;;;;;;;2.05;0.90;;;26.40;90.50;;;;;;5027116;28;20029;-77
2022/07/09 12:21:44;;;;;;;6.20;1.23;;;26.10;90.40;;;;;;5026926;28;20017;-77
2022/07/09 12:24:09;;;;;;;4.90;1.30;;;26.00;90.40;;;;;;5027151;28;20063;-77
2022/07/09 12:26:37;;;;;;;4.93;1.00;;;25.90;90.20;;;;;;5012992;28;20051;-77
2022/07/09 12:29:02;;;;;;;3.45;1.10;;;25.80;91.80;;;;;;5025807;28;20036;-77
2022/07/09 12:31:28;;;;;;;1.98;1.08;;;25.90;92.70;;;;;;5027075;28;20037;-77
2022/07/09 12:33:56;;;;;;;2.60;1.15;;;25.80;91.90;;;;;;5026891;28;20079;-77
2022/07/09 12:36:22;;;;;;;3.55;1.15;;;25.80;92.20;;;;;;5030107;28;20104;-77
2022/07/09 12:38:47;;;;;;;4.40;1.17;;;25.70;92.60;;;;;;5029975;28;20283;-77
2022/07/09 12:41:18;;;;;;;5.10;1.10;;;25.80;91.60;;;;;;5028380;28;20045;-77
2022/07/09 12:43:44;;;;;;;4.00;1.38;;;25.80;90.90;;;;;;5028909;28;20043;-72
2022/07/09 12:46:09;;;;;;;4.93;1.20;;;25.50;91.50;;;;;;5034275;28;20494;-72
2022/07/09 12:48:35;;;;;;;2.08;1.02;;;25.40;90.50;;;;;;5033971;28;20037;-72